Terminal Aerodrome Forecast
Issued by NWS Twin Cities, MN

Home | Current Version | Previous Version | Text Only | Print | Product List | Glossary Off
Versions: 1 2 3 4 5 6 7 8 9 10 11 12 13 14 15 16 17 18 19 20 21 22 23 24 25 26

329
FTUS43 KMPX 030902 AAB
TAFMSP
TAF AMD
KMSP 030902Z 0309/0412 35020G30KT 5SM -SN BLSN SCT018 BKN040
      TEMPO 0309/0312 2SM -SN BLSN BKN018
     FM031200 34018G28KT 4SM BLSN OVC018
     FM031800 32016G24KT 6SM BLSN BKN025
     FM032100 31014G22KT P6SM SCT025
     FM040000 28007KT P6SM BKN250=

USA.gov is the U.S. government's official web portal to all federal, state and local government web resources and services.